createdAt,value
2019-04-16T00:02:41.945Z,9.48
2019-04-16T00:05:27.479Z,9.38
2019-04-16T00:07:59.350Z,10.18
2019-04-16T00:10:45.790Z,10.15
2019-04-16T00:13:26.542Z,9.83
2019-04-16T00:15:55.615Z,9.98
2019-04-16T00:18:24.679Z,10.95
2019-04-16T00:21:11.463Z,9.70
2019-04-16T00:24:00.022Z,10.18
2019-04-16T00:26:28.859Z,9.98
2019-04-16T00:29:01.655Z,10.10
2019-04-16T00:31:28.584Z,10.25
2019-04-16T00:33:57.821Z,10.65
2019-04-16T00:36:26.873Z,9.58
2019-04-16T00:38:55.803Z,10.85
2019-04-16T00:41:24.644Z,9.85
2019-04-16T00:43:53.518Z,9.75
2019-04-16T00:46:22.425Z,9.35
2019-04-16T00:48:51.369Z,9.98
2019-04-16T00:51:20.271Z,9.80
2019-04-16T00:53:49.288Z,9.98
2019-04-16T00:56:19.444Z,10.08
2019-04-16T00:58:49.397Z,10.10
2019-04-16T01:01:18.918Z,10.50
2019-04-16T01:03:47.876Z,11.35
2019-04-16T01:06:16.832Z,10.15
2019-04-16T01:08:54.444Z,10.85
2019-04-16T01:11:16.502Z,9.98
2019-04-16T01:13:45.859Z,10.50
2019-04-16T01:16:14.982Z,9.85
2019-04-16T01:18:43.837Z,11.10
2019-04-16T01:21:14.263Z,11.08
2019-04-16T01:23:43.407Z,9.98
2019-04-16T01:26:12.376Z,11.60
2019-04-16T01:28:50.860Z,10.53
2019-04-16T01:31:32.607Z,10.20
2019-04-16T01:34:09.949Z,10.30
2019-04-16T01:37:06.568Z,10.82
2019-04-16T01:39:36.409Z,11.00
2019-04-16T01:42:05.386Z,9.13
2019-04-16T01:44:34.484Z,11.18
2019-04-16T01:47:04.166Z,9.75
2019-04-16T01:49:34.171Z,11.12
2019-04-16T01:52:03.438Z,10.45
2019-04-16T01:54:32.627Z,10.53
2019-04-16T01:57:01.565Z,10.13
2019-04-16T01:59:30.483Z,10.38
2019-04-16T02:01:59.841Z,10.70
2019-04-16T02:04:28.821Z,10.20
2019-04-16T02:06:57.993Z,10.63
2019-04-16T02:09:26.916Z,10.50
2019-04-16T02:11:55.901Z,9.63
2019-04-16T02:14:24.836Z,10.98
2019-04-16T02:16:55.985Z,11.05
2019-04-16T02:19:24.632Z,10.93
2019-04-16T02:21:53.978Z,10.72
2019-04-16T02:24:22.969Z,10.35
2019-04-16T02:26:54.587Z,9.70
2019-04-16T02:29:22.526Z,11.22
2019-04-16T02:31:52.413Z,9.78
2019-04-16T02:34:21.525Z,10.48
2019-04-16T02:36:50.551Z,10.40
2019-04-16T02:39:25.505Z,10.93
2019-04-16T02:41:56.783Z,10.15
2019-04-16T02:44:20.753Z,11.08
2019-04-16T02:46:49.748Z,10.13
2019-04-16T02:49:23.084Z,10.25
2019-04-16T02:52:00.779Z,10.40
2019-04-16T02:54:49.149Z,10.25
2019-04-16T02:57:35.454Z,10.85
2019-04-16T03:00:10.380Z,10.85
2019-04-16T03:02:58.436Z,11.22
2019-04-16T03:05:32.611Z,10.60
2019-04-16T03:08:04.475Z,10.85
2019-04-16T03:10:32.213Z,9.58
2019-04-16T03:13:01.323Z,10.35
2019-04-16T03:15:47.271Z,10.25
2019-04-16T03:18:17.591Z,9.75
2019-04-16T03:20:46.507Z,10.95
2019-04-16T03:23:15.656Z,10.43
2019-04-16T03:25:45.118Z,10.78
2019-04-16T03:28:14.158Z,12.13
2019-04-16T03:30:43.125Z,10.35
2019-04-16T03:33:14.326Z,10.55
2019-04-16T03:35:42.668Z,11.05
2019-04-16T03:38:11.685Z,10.88
2019-04-16T03:40:40.618Z,10.10
2019-04-16T03:43:09.708Z,9.58
2019-04-16T03:45:40.395Z,9.58
2019-04-16T03:48:09.703Z,10.82
2019-04-16T03:50:38.627Z,10.10
2019-04-16T03:53:07.533Z,11.12
2019-04-16T03:55:36.487Z,10.60
2019-04-16T03:58:06.953Z,11.57
2019-04-16T04:00:36.007Z,9.98
2019-04-16T04:03:04.996Z,10.75
2019-04-16T04:05:35.080Z,10.70
2019-04-16T04:08:04.904Z,9.80
2019-04-16T04:10:36.863Z,9.93
2019-04-16T04:13:05.018Z,11.08
2019-04-16T04:15:34.113Z,11.30
2019-04-16T04:18:02.954Z,10.20
2019-04-16T04:20:32.339Z,10.75
2019-04-16T04:23:01.157Z,10.95
2019-04-16T04:25:30.083Z,11.60
2019-04-16T04:27:58.907Z,11.00
2019-04-16T04:30:28.700Z,10.68
2019-04-16T04:32:58.418Z,11.03
2019-04-16T04:35:27.263Z,9.93
2019-04-16T04:37:56.161Z,10.40
2019-04-16T04:40:25.068Z,11.35
2019-04-16T04:42:53.984Z,11.33
2019-04-16T04:45:22.964Z,11.55
2019-04-16T04:47:53.202Z,11.00
2019-04-16T04:50:22.156Z,12.05
2019-04-16T04:52:51.185Z,11.68
2019-04-16T04:55:20.175Z,11.75
2019-04-16T04:57:49.134Z,11.97
2019-04-16T05:00:18.746Z,12.03
2019-04-16T05:02:47.764Z,11.97
2019-04-16T05:05:39.838Z,10.48
2019-04-16T05:08:08.983Z,10.88
2019-04-16T05:10:42.796Z,10.95
2019-04-16T05:13:08.837Z,10.20
2019-04-16T05:15:37.895Z,11.05
2019-04-16T05:18:09.740Z,11.68
2019-04-16T05:20:37.739Z,11.95
2019-04-16T05:23:06.635Z,11.30
2019-04-16T05:25:35.661Z,10.72
2019-04-16T05:28:04.697Z,10.48
2019-04-16T05:30:33.621Z,11.60
2019-04-16T05:33:05.623Z,11.03
2019-04-16T05:35:33.514Z,11.55
2019-04-16T05:38:02.398Z,10.75
2019-04-16T05:40:34.239Z,11.28
2019-04-16T05:43:01.860Z,11.33
2019-04-16T05:45:30.697Z,12.37
2019-04-16T05:48:00.068Z,12.10
2019-04-16T05:50:29.983Z,10.40
2019-04-16T05:52:59.062Z,11.85
2019-04-16T05:55:57.415Z,10.32
2019-04-16T05:58:27.730Z,11.28
2019-04-16T06:01:07.507Z,10.93
2019-04-16T06:03:36.387Z,9.60
2019-04-16T06:06:05.375Z,10.78
2019-04-16T06:08:34.212Z,9.95
2019-04-16T06:11:03.137Z,10.80
2019-04-16T06:13:41.321Z,9.15
2019-04-16T06:16:25.666Z,9.85
2019-04-16T06:19:22.716Z,9.68
2019-04-16T06:22:16.533Z,10.10
2019-04-16T06:24:58.790Z,9.85
2019-04-16T06:27:45.924Z,10.08
2019-04-16T06:30:21.640Z,9.18
2019-04-16T06:32:55.724Z,9.38
2019-04-16T06:35:43.543Z,8.83
2019-04-16T06:38:29.617Z,8.88
2019-04-16T06:41:16.496Z,9.78
2019-04-16T06:43:50.750Z,9.53
2019-04-16T06:46:39.459Z,9.55
2019-04-16T06:49:22.403Z,9.55
2019-04-16T06:52:15.828Z,9.93
2019-04-16T06:55:06.244Z,9.18
2019-04-16T06:57:52.870Z,10.10
2019-04-16T07:00:42.371Z,11.08
2019-04-16T07:03:32.960Z,9.33
2019-04-16T07:06:36.235Z,10.13
2019-04-16T07:09:13.884Z,10.80
2019-04-16T07:11:53.790Z,8.98
2019-04-16T07:14:15.589Z,9.25
2019-04-16T07:16:45.002Z,10.03
2019-04-16T07:19:16.621Z,9.28
2019-04-16T07:21:49.627Z,9.60
2019-04-16T07:24:17.455Z,9.30
2019-04-16T07:26:48.102Z,9.25
2019-04-16T07:29:32.710Z,9.15
2019-04-16T07:32:17.233Z,8.90
2019-04-16T07:34:55.028Z,8.95
2019-04-16T07:37:36.749Z,8.73
2019-04-16T07:40:24.116Z,9.45
2019-04-16T07:43:10.508Z,8.73
2019-04-16T07:45:50.196Z,9.18
2019-04-16T07:48:26.608Z,9.00
2019-04-16T07:51:13.460Z,9.80
2019-04-16T07:54:02.268Z,8.98
2019-04-16T07:56:30.747Z,8.90
2019-04-16T07:59:01.270Z,9.38
2019-04-16T08:01:30.430Z,9.33
2019-04-16T08:04:01.389Z,9.73
2019-04-16T08:06:30.026Z,10.20
2019-04-16T08:08:58.981Z,10.65
2019-04-16T08:11:28.000Z,10.58
2019-04-16T08:13:56.934Z,10.10
2019-04-16T08:16:25.780Z,10.13
2019-04-16T08:18:54.659Z,10.50
2019-04-16T08:21:23.620Z,10.70
2019-04-16T08:24:07.847Z,9.48
2019-04-16T08:26:36.861Z,11.75
2019-04-16T08:29:05.858Z,10.95
2019-04-16T08:31:43.474Z,10.93
2019-04-16T08:34:08.687Z,10.35
2019-04-16T08:36:37.636Z,10.85
2019-04-16T08:39:07.595Z,11.08
2019-04-16T08:41:36.577Z,10.35
2019-04-16T08:44:05.510Z,11.75
2019-04-16T08:46:35.027Z,10.70
2019-04-16T08:49:04.327Z,11.25
2019-04-16T08:51:36.939Z,11.35
2019-04-16T08:54:03.969Z,10.08
2019-04-16T08:56:32.904Z,11.12
2019-04-16T08:59:01.844Z,10.28
2019-04-16T09:01:33.278Z,10.53
2019-04-16T09:04:03.003Z,11.03
2019-04-16T09:06:32.599Z,9.83
2019-04-16T09:09:14.416Z,12.33
2019-04-16T09:11:43.198Z,11.88
2019-04-16T09:14:12.227Z,12.60
2019-04-16T09:16:56.520Z,11.57
2019-04-16T09:19:25.591Z,10.35
2019-04-16T09:21:54.605Z,12.15
2019-04-16T09:24:45.684Z,11.33
2019-04-16T09:27:34.311Z,12.55
2019-04-16T09:30:37.714Z,11.18
2019-04-16T09:33:19.482Z,13.18
2019-04-16T09:36:11.113Z,12.15
2019-04-16T09:38:48.199Z,11.43
2019-04-16T09:41:28.142Z,11.88
2019-04-16T09:43:58.683Z,12.05
2019-04-16T09:46:49.758Z,12.40
2019-04-16T09:48:58.613Z,12.05
2019-04-16T09:51:27.628Z,12.05
2019-04-16T09:53:56.879Z,12.23
2019-04-16T09:56:32.766Z,11.28
2019-04-16T09:59:05.736Z,12.05
2019-04-16T10:01:50.042Z,12.73
2019-04-16T10:04:19.920Z,12.05
2019-04-16T10:06:49.354Z,11.55
2019-04-16T10:09:21.964Z,12.75
2019-04-16T10:11:49.035Z,11.55
2019-04-16T10:14:18.144Z,11.93
2019-04-16T10:16:47.181Z,12.95
2019-04-16T10:19:16.100Z,13.53
2019-04-16T10:21:46.468Z,12.75
2019-04-16T10:24:34.504Z,12.50
2019-04-16T10:27:04.572Z,12.73
2019-04-16T10:29:33.895Z,13.15
2019-04-16T10:32:02.845Z,12.63
2019-04-16T10:34:31.829Z,13.22
2019-04-16T10:37:00.683Z,13.43
2019-04-16T10:46:42.501Z,12.37
2019-04-16T10:49:19.666Z,13.28
2019-04-16T10:52:22.923Z,14.63
2019-04-16T10:54:56.536Z,13.48
2019-04-16T10:57:41.372Z,13.65
2019-04-16T11:00:28.450Z,12.95
2019-04-16T11:03:19.560Z,14.73
2019-04-16T11:05:57.159Z,15.55
2019-04-16T11:08:26.373Z,14.25
2019-04-16T11:10:55.402Z,14.50
2019-04-16T11:13:31.702Z,14.60
2019-04-16T11:16:06.891Z,13.75
2019-04-16T11:18:36.025Z,14.83
2019-04-16T11:21:06.394Z,14.25
2019-04-16T11:23:35.400Z,14.18
2019-04-16T11:26:04.634Z,13.55
2019-04-16T11:28:33.614Z,13.45
2019-04-16T11:31:04.554Z,15.28
2019-04-16T11:33:33.774Z,13.80
2019-04-16T11:36:17.430Z,14.78
2019-04-16T11:38:33.482Z,14.15
2019-04-16T11:41:02.459Z,13.68
2019-04-16T11:43:31.413Z,14.55
2019-04-16T11:46:01.874Z,15.18
2019-04-16T11:48:31.116Z,14.25
2019-04-16T11:51:00.272Z,13.60
2019-04-16T11:53:29.177Z,13.60
2019-04-16T11:55:58.162Z,14.98
2019-04-16T11:58:44.910Z,14.10
2019-04-16T12:01:40.519Z,14.20
2019-04-16T12:04:21.009Z,14.03
2019-04-16T12:07:10.601Z,14.53
2019-04-16T12:09:51.163Z,13.03
2019-04-16T12:12:27.509Z,13.72
2019-04-16T12:15:13.947Z,15.13
2019-04-16T12:17:59.015Z,14.93
2019-04-16T12:21:02.789Z,15.50
2019-04-16T12:23:37.094Z,15.05
2019-04-16T12:26:16.771Z,14.65
2019-04-16T12:28:55.827Z,15.53
2019-04-16T12:31:32.175Z,14.93
2019-04-16T12:34:25.954Z,14.68
2019-04-16T12:37:12.929Z,16.17
2019-04-16T12:39:54.703Z,15.90
2019-04-16T12:42:42.840Z,13.88
2019-04-16T12:45:31.592Z,15.48
2019-04-16T12:48:22.488Z,16.52
2019-04-16T12:51:01.111Z,15.55
2019-04-16T12:53:47.516Z,14.55
2019-04-16T12:56:39.990Z,15.38
2019-04-16T12:59:22.095Z,15.35
2019-04-16T13:02:05.885Z,15.93
2019-04-16T13:04:49.592Z,15.48
2019-04-16T13:07:33.039Z,14.83
2019-04-16T13:10:30.114Z,16.55
2019-04-16T13:13:03.965Z,16.25
2019-04-16T13:15:42.869Z,15.68
2019-04-16T13:18:18.316Z,16.27
2019-04-16T13:21:11.399Z,16.37
2019-04-16T13:24:02.388Z,14.45
2019-04-16T13:26:37.469Z,16.25
2019-04-16T13:29:18.426Z,16.15
2019-04-16T13:31:47.506Z,15.93
2019-04-16T13:34:18.659Z,15.10
2019-04-16T13:36:47.358Z,15.35
2019-04-16T13:39:33.517Z,15.45
2019-04-16T13:42:02.552Z,15.10
2019-04-16T13:44:40.622Z,15.18
2019-04-16T13:47:09.030Z,15.30
2019-04-16T13:49:52.065Z,16.55
2019-04-16T13:52:25.168Z,15.18
2019-04-16T13:55:08.608Z,16.55
2019-04-16T13:57:36.692Z,15.98
2019-04-16T14:00:27.341Z,16.12
2019-04-16T14:02:59.403Z,16.00
2019-04-16T14:05:28.460Z,15.55
2019-04-16T14:07:57.486Z,16.73
2019-04-16T14:10:26.548Z,15.80
2019-04-16T14:12:55.589Z,16.70
2019-04-16T14:15:32.142Z,17.55
2019-04-16T14:17:59.754Z,16.17
2019-04-16T14:20:28.386Z,17.12
2019-04-16T14:22:57.339Z,17.45
2019-04-16T14:25:26.331Z,16.50
2019-04-16T14:27:55.945Z,16.93
2019-04-16T14:30:29.525Z,17.85
2019-04-16T14:32:58.520Z,16.60
2019-04-16T14:35:33.462Z,16.90
2019-04-16T14:38:00.356Z,17.30
2019-04-16T14:40:29.817Z,17.77
2019-04-16T14:42:58.722Z,18.65
2019-04-16T14:45:38.269Z,17.55
2019-04-16T14:48:07.643Z,17.65
2019-04-16T14:50:35.123Z,18.07
2019-04-16T14:53:04.128Z,18.20
2019-04-16T14:56:04.370Z,17.52
2019-04-16T14:58:55.590Z,17.27
2019-04-16T15:01:47.013Z,18.95
2019-04-16T15:04:29.343Z,19.40
2019-04-16T15:07:08.427Z,17.95
2019-04-16T15:09:49.790Z,18.07
2019-04-16T15:12:40.681Z,17.50
2019-04-16T15:15:22.053Z,18.50
2019-04-16T15:18:00.072Z,18.52
2019-04-16T15:20:50.972Z,18.42
2019-04-16T15:23:35.967Z,18.02
2019-04-16T15:26:16.567Z,17.95
2019-04-16T15:28:57.512Z,18.30
2019-04-16T15:31:51.111Z,18.25
2019-04-16T15:34:22.811Z,17.77
2019-04-16T15:37:17.952Z,17.87
2019-04-16T15:39:51.668Z,19.15
2019-04-16T15:42:40.758Z,17.48
2019-04-16T15:45:42.723Z,18.02
2019-04-16T15:48:29.122Z,18.10
2019-04-16T15:51:14.887Z,18.10
2019-04-16T15:54:01.556Z,18.02
2019-04-16T15:56:35.350Z,17.45
2019-04-16T15:59:23.475Z,18.67
2019-04-16T16:02:05.507Z,18.48
2019-04-16T16:05:02.636Z,17.45
2019-04-16T16:07:36.249Z,17.73
2019-04-16T16:10:13.767Z,16.42
2019-04-16T16:12:40.972Z,18.42
2019-04-16T16:15:10.481Z,19.55
2019-04-16T16:17:39.402Z,19.50
2019-04-16T16:20:11.275Z,18.85
2019-04-16T16:22:40.764Z,18.37
2019-04-16T16:25:10.390Z,19.77
2019-04-16T16:27:44.111Z,17.40
2019-04-16T16:30:14.373Z,16.80
2019-04-16T16:32:40.775Z,16.62
2019-04-16T16:35:11.223Z,17.40
2019-04-16T16:37:40.077Z,17.92
2019-04-16T16:40:11.906Z,18.05
2019-04-16T16:42:39.803Z,28.98
2019-04-16T16:45:09.202Z,34.50
2019-04-16T16:47:41.246Z,36.98
2019-04-16T16:50:14.057Z,20.72
2019-04-16T16:53:00.316Z,18.10
2019-04-16T16:55:49.946Z,16.97
2019-04-16T16:58:32.472Z,19.15
2019-04-16T17:01:18.867Z,18.32
2019-04-16T17:04:15.727Z,17.45
2019-04-16T17:06:44.748Z,17.52
2019-04-16T17:09:27.157Z,19.35
2019-04-16T17:11:57.627Z,18.55
2019-04-16T17:14:26.988Z,18.60
2019-04-16T17:17:11.279Z,19.10
2019-04-16T17:19:26.583Z,19.37
2019-04-16T17:21:55.511Z,18.95
2019-04-16T17:24:24.443Z,18.50
2019-04-16T17:26:53.530Z,18.35
2019-04-16T17:29:22.953Z,17.35
2019-04-16T17:31:52.377Z,17.27
2019-04-16T17:34:21.389Z,19.55
2019-04-16T17:36:50.401Z,18.42
2019-04-16T17:39:43.385Z,17.87
2019-04-16T17:42:12.713Z,17.50
2019-04-16T17:44:59.621Z,18.17
2019-04-16T17:47:50.492Z,18.55
2019-04-16T17:50:29.819Z,18.32
2019-04-16T17:53:16.679Z,18.77
2019-04-16T17:55:50.680Z,15.68
2019-04-16T17:58:36.122Z,17.23
2019-04-16T18:01:34.718Z,17.20
2019-04-16T18:04:20.561Z,18.48
2019-04-16T18:07:06.984Z,19.80
2019-04-16T18:09:43.858Z,18.20
2019-04-16T18:12:41.606Z,17.55
2019-04-16T18:15:19.630Z,19.10
2019-04-16T18:18:17.184Z,21.33
2019-04-16T18:21:21.735Z,17.70
2019-04-16T18:23:57.775Z,18.23
2019-04-16T18:26:55.143Z,17.07
2019-04-16T18:29:31.778Z,19.12
2019-04-16T18:32:15.476Z,17.92
2019-04-16T18:35:04.569Z,20.17
2019-04-16T18:38:05.276Z,18.23
2019-04-16T18:40:45.389Z,19.48
2019-04-16T18:43:36.311Z,18.48
2019-04-16T18:46:19.347Z,17.48
2019-04-16T18:48:49.706Z,17.87
2019-04-16T18:51:18.818Z,16.05
2019-04-16T18:53:47.806Z,17.35
2019-04-16T18:56:16.845Z,16.00
2019-04-16T18:58:45.903Z,16.67
2019-04-16T19:01:19.833Z,16.90
2019-04-16T19:03:49.013Z,17.52
2019-04-16T19:06:18.433Z,18.82
2019-04-16T19:08:47.404Z,18.70
2019-04-16T19:11:20.146Z,16.75
2019-04-16T19:13:47.261Z,17.45
2019-04-16T19:16:16.261Z,18.55
2019-04-16T19:18:45.248Z,19.80
2019-04-16T19:21:15.440Z,21.07
2019-04-16T19:23:44.464Z,19.37
2019-04-16T19:26:13.548Z,20.20
2019-04-16T19:28:45.497Z,19.62
2019-04-16T19:31:13.349Z,17.60
2019-04-16T19:33:43.234Z,18.67
2019-04-16T19:36:12.231Z,20.35
2019-04-16T19:38:41.329Z,18.80
2019-04-16T19:41:10.451Z,18.37
2019-04-16T19:43:39.332Z,16.95
2019-04-16T19:46:08.445Z,19.07
2019-04-16T19:48:37.500Z,18.70
2019-04-16T19:51:08.225Z,18.32
2019-04-16T19:53:37.145Z,19.00
2019-04-16T19:56:06.250Z,17.67
2019-04-16T19:58:35.182Z,20.32
2019-04-16T20:01:04.720Z,20.37
2019-04-16T20:03:33.795Z,19.10
2019-04-16T20:06:02.954Z,17.98
2019-04-16T20:08:36.687Z,18.87
2019-04-16T20:11:02.733Z,18.45
2019-04-16T20:13:31.676Z,17.20
2019-04-16T20:16:00.805Z,17.82
2019-04-16T20:18:30.537Z,15.60
2019-04-16T20:21:01.513Z,14.05
2019-04-16T20:23:30.769Z,13.50
2019-04-16T20:26:01.023Z,12.13
2019-04-16T20:28:30.670Z,12.23
2019-04-16T20:31:03.274Z,10.93
2019-04-16T20:33:30.596Z,11.20
2019-04-16T20:35:59.590Z,11.18
2019-04-16T20:38:29.323Z,9.98
2019-04-16T20:40:59.593Z,9.88
2019-04-16T20:43:28.760Z,10.10
2019-04-16T20:45:57.830Z,9.43
2019-04-16T20:48:26.935Z,9.25
2019-04-16T20:50:59.343Z,9.18
2019-04-16T20:53:26.527Z,8.95
2019-04-16T20:55:55.780Z,9.60
2019-04-16T20:58:30.570Z,9.95
2019-04-16T21:00:57.276Z,9.43
2019-04-16T21:03:26.222Z,10.30
2019-04-16T21:05:59.176Z,10.00
2019-04-16T21:08:25.705Z,10.53
2019-04-16T21:10:58.483Z,10.60
2019-04-16T21:13:25.349Z,10.13
2019-04-16T21:15:57.296Z,9.63
2019-04-16T21:18:25.123Z,8.98
2019-04-16T21:20:54.089Z,8.38
2019-04-16T21:23:23.717Z,8.28
2019-04-16T21:25:52.645Z,8.85
2019-04-16T21:28:43.208Z,8.25
2019-04-16T21:31:34.084Z,8.28
2019-04-16T21:34:24.981Z,7.60
2019-04-16T21:37:12.620Z,8.43
2019-04-16T21:39:53.835Z,9.20
2019-04-16T21:42:22.739Z,8.78
2019-04-16T21:44:51.763Z,8.23
2019-04-16T21:47:23.640Z,9.03
2019-04-16T21:49:51.375Z,8.50
2019-04-16T21:52:23.066Z,8.28
2019-04-16T21:54:51.698Z,7.80
2019-04-16T21:57:20.631Z,7.80
2019-04-16T21:59:54.771Z,8.10
2019-04-16T22:02:25.095Z,7.35
2019-04-16T22:04:54.163Z,7.90
2019-04-16T22:07:24.612Z,7.72
2019-04-16T22:09:53.937Z,7.75
2019-04-16T22:12:23.230Z,8.58
2019-04-16T22:14:54.430Z,9.05
2019-04-16T22:17:23.154Z,8.95
2019-04-16T22:20:00.154Z,7.33
2019-04-16T22:22:22.973Z,8.08
2019-04-16T22:24:54.830Z,7.50
2019-04-16T22:27:22.348Z,7.92
2019-04-16T22:29:51.330Z,7.42
2019-04-16T22:32:20.250Z,7.95
2019-04-16T22:34:49.132Z,7.33
2019-04-16T22:37:18.007Z,7.17
2019-04-16T22:40:04.293Z,7.53
2019-04-16T22:42:43.791Z,6.50
2019-04-16T22:45:31.856Z,6.85
2019-04-16T22:48:01.006Z,6.67
2019-04-16T22:50:29.900Z,5.97
2019-04-16T22:52:58.894Z,6.92
2019-04-16T22:55:27.731Z,7.17
2019-04-16T22:57:59.863Z,6.67
2019-04-16T23:00:31.040Z,7.22
2019-04-16T23:02:59.963Z,6.30
2019-04-16T23:05:30.796Z,6.47
2019-04-16T23:07:59.429Z,7.17
2019-04-16T23:10:28.427Z,7.28
2019-04-16T23:13:00.692Z,7.50
2019-04-16T23:15:28.804Z,6.50
2019-04-16T23:17:57.831Z,6.85
2019-04-16T23:20:29.559Z,6.80
2019-04-16T23:22:57.569Z,7.08
2019-04-16T23:25:27.334Z,7.45
2019-04-16T23:27:57.754Z,7.03
2019-04-16T23:30:27.123Z,7.92
2019-04-16T23:32:59.072Z,7.28
2019-04-16T23:35:26.533Z,6.72
2019-04-16T23:37:58.101Z,6.67
2019-04-16T23:40:25.980Z,6.05
2019-04-16T23:43:08.660Z,5.80
2019-04-16T23:46:05.025Z,6.15
2019-04-16T23:48:41.599Z,5.72
2019-04-16T23:51:15.462Z,5.58
2019-04-16T23:53:50.912Z,5.33
2019-04-16T23:56:41.528Z,5.37
2019-04-16T23:59:36.861Z,5.35
